Airfield :
LOGIN :

Register | Disclaimer

   EN    FR    IT 

 










Legend :    VFR   Marginal VFR   IFR   Intensive IFR   Very Intensive IFR
Visi :
Ceiling :
>= 8 km
>= 3000ft
5 to 8 km
1000 to 3000 ft
1500m to 5 km
500 to 1000 ft
800 to 1500m
200 to 500 ft
< 800m
< 200 ft
Symbols :   Thunderstorms  Fog  Heavy snow  Heavy precipitations  Wind > 20 kt
SIGMETs :     Misc.  Thunderstorms  Icing  Turbulence  Mountain Waves  Volcanic Ashes






- Airport Elevation : 119 ft
- IATA code : WAT


EIWF - Waterford

CURRENT METAR :
  • 181100Z 26009KT 210V320 9999 VCSH SCT018 SCT026 12/10 Q0990 R21/1/////

EXPIRED METARs :
  • 181030Z 26012G22KT 220V300 9999 VCSH SCT018CB SCT026 11/08 Q0991 R21/1/////
  • 181000Z 25015KT 220V300 9999 VCSH SCT018CB SCT026 12/09 Q0991 R21/1/////
  • 180930Z 25014KT 220V280 9999 VCSH SCT020 SCT026 11/09 Q0991 R21/1/////
  • 180900Z 26009KT 210V310 9999 VCSH SCT020 SCT026 11/08 Q0991 R21/1/////
  • 180830Z 27008KT 210V320 9999 VCSH SCT020 SCT024 11/08 Q0991 R21/1/////

TAF TAF EIWF
Valid from the 18 at 09:00 until the 18 at 18:00 UTC


180800Z 1809/1818 24014KT 9999 SCT020
TEMPO 1809/1815 24016G28KT
TEMPO 1809/1816 -SHRA SCT020CB
BECMG 1816/1818 28010KT
ATIS : +353 51 877 000



MET'MAP, your aeronautical weather chart ! - Copyright ORBIFLY December 2007 - Disclaimer

ORBIFLY MET'MAP TEAM :

Programming & Development : Alexandra Zaïnal
Concept & Development : Baudouin d'Aumeries
Co-Development & Prog : Marc-Olivier Méhu
Technical & hardware support : Manuel Goepfert

Contact : metmap@orbifly.com




SOURCES & CREDITS :

   NOAA